sensor_id;sensor_type;location;lat;lon;timestamp;temperature;humidity
18777;DHT22;9517;51.174;4.160;2022-10-03T00:02:15;9.90;99.90
18777;DHT22;9517;51.174;4.160;2022-10-03T00:04:57;9.90;99.90
18777;DHT22;9517;51.174;4.160;2022-10-03T00:07:50;10.00;99.90
18777;DHT22;9517;51.174;4.160;2022-10-03T00:10:26;10.00;99.90
18777;DHT22;9517;51.174;4.160;2022-10-03T00:13:02;10.00;99.90
18777;DHT22;9517;51.174;4.160;2022-10-03T00:15:40;10.00;99.90
18777;DHT22;9517;51.174;4.160;2022-10-03T00:18:24;9.90;99.90
18777;DHT22;9517;51.174;4.160;2022-10-03T00:21:13;9.90;99.90
18777;DHT22;9517;51.174;4.160;2022-10-03T00:23:50;9.90;99.90
18777;DHT22;9517;51.174;4.160;2022-10-03T00:26:27;9.90;99.90
18777;DHT22;9517;51.174;4.160;2022-10-03T00:32:04;9.70;99.90
18777;DHT22;9517;51.174;4.160;2022-10-03T00:34:47;9.60;99.90
18777;DHT22;9517;51.174;4.160;2022-10-03T00:37:26;9.60;99.90
18777;DHT22;9517;51.174;4.160;2022-10-03T00:40:36;9.60;99.90
18777;DHT22;9517;51.174;4.160;2022-10-03T00:43:45;9.70;99.90
18777;DHT22;9517;51.174;4.160;2022-10-03T00:52:52;9.70;99.90
18777;DHT22;9517;51.174;4.160;2022-10-03T00:55:29;9.70;99.90
18777;DHT22;9517;51.174;4.160;2022-10-03T00:58:27;9.70;99.90
18777;DHT22;9517;51.174;4.160;2022-10-03T01:01:02;9.60;99.90
18777;DHT22;9517;51.174;4.160;2022-10-03T01:03:54;9.60;99.90
18777;DHT22;9517;51.174;4.160;2022-10-03T01:06:35;9.50;99.90
18777;DHT22;9517;51.174;4.160;2022-10-03T01:09:26;9.40;99.90
18777;DHT22;9517;51.174;4.160;2022-10-03T01:12:12;9.30;99.90
18777;DHT22;9517;51.174;4.160;2022-10-03T01:15:07;9.30;99.90
18777;DHT22;9517;51.174;4.160;2022-10-03T01:17:44;9.30;99.90
18777;DHT22;9517;51.174;4.160;2022-10-03T01:20:26;9.50;99.90
18777;DHT22;9517;51.174;4.160;2022-10-03T01:25:58;9.60;99.90
18777;DHT22;9517;51.174;4.160;2022-10-03T01:28:45;9.60;99.90
18777;DHT22;9517;51.174;4.160;2022-10-03T01:31:39;9.70;99.90
18777;DHT22;9517;51.174;4.160;2022-10-03T01:34:12;9.60;99.90
18777;DHT22;9517;51.174;4.160;2022-10-03T01:36:47;9.60;99.90
18777;DHT22;9517;51.174;4.160;2022-10-03T01:39:23;9.60;99.90
18777;DHT22;9517;51.174;4.160;2022-10-03T01:41:57;9.60;99.90
18777;DHT22;9517;51.174;4.160;2022-10-03T01:44:35;9.50;99.90
18777;DHT22;9517;51.174;4.160;2022-10-03T01:47:16;9.50;99.90
18777;DHT22;9517;51.174;4.160;2022-10-03T01:49:50;9.60;99.90
18777;DHT22;9517;51.174;4.160;2022-10-03T01:52:25;9.50;99.90
18777;DHT22;9517;51.174;4.160;2022-10-03T01:55:00;9.50;99.90
18777;DHT22;9517;51.174;4.160;2022-10-03T01:57:34;9.50;99.90
18777;DHT22;9517;51.174;4.160;2022-10-03T02:00:07;9.40;99.90
18777;DHT22;9517;51.174;4.160;2022-10-03T02:02:43;9.40;99.90
18777;DHT22;9517;51.174;4.160;2022-10-03T02:05:16;9.20;99.90
18777;DHT22;9517;51.174;4.160;2022-10-03T02:07:49;9.20;99.90
18777;DHT22;9517;51.174;4.160;2022-10-03T02:10:25;9.20;99.90
18777;DHT22;9517;51.174;4.160;2022-10-03T02:13:04;9.20;99.90
18777;DHT22;9517;51.174;4.160;2022-10-03T02:15:45;9.30;99.90
18777;DHT22;9517;51.174;4.160;2022-10-03T02:18:17;9.30;99.90
18777;DHT22;9517;51.174;4.160;2022-10-03T02:20:50;9.20;99.90
18777;DHT22;9517;51.174;4.160;2022-10-03T02:23:25;9.20;99.90
18777;DHT22;9517;51.174;4.160;2022-10-03T02:26:22;9.20;99.90
18777;DHT22;9517;51.174;4.160;2022-10-03T02:29:16;9.10;99.90
18777;DHT22;9517;51.174;4.160;2022-10-03T02:32:31;9.20;99.90
18777;DHT22;9517;51.174;4.160;2022-10-03T02:38:27;9.20;99.90
18777;DHT22;9517;51.174;4.160;2022-10-03T02:41:15;9.20;99.90
18777;DHT22;9517;51.174;4.160;2022-10-03T02:44:18;9.10;99.90
18777;DHT22;9517;51.174;4.160;2022-10-03T02:47:11;9.10;99.90
18777;DHT22;9517;51.174;4.160;2022-10-03T02:50:12;9.00;99.90
18777;DHT22;9517;51.174;4.160;2022-10-03T02:53:23;9.00;99.90
18777;DHT22;9517;51.174;4.160;2022-10-03T02:56:16;9.10;99.90
18777;DHT22;9517;51.174;4.160;2022-10-03T02:59:11;9.20;99.90
18777;DHT22;9517;51.174;4.160;2022-10-03T03:01:51;9.20;99.90
18777;DHT22;9517;51.174;4.160;2022-10-03T03:05:11;9.10;99.90
18777;DHT22;9517;51.174;4.160;2022-10-03T03:11:20;9.10;99.90
18777;DHT22;9517;51.174;4.160;2022-10-03T03:14:25;9.10;99.90
18777;DHT22;9517;51.174;4.160;2022-10-03T03:17:16;9.10;99.90
18777;DHT22;9517;51.174;4.160;2022-10-03T03:19:57;9.00;99.90
18777;DHT22;9517;51.174;4.160;2022-10-03T03:22:47;9.00;99.90
18777;DHT22;9517;51.174;4.160;2022-10-03T03:25:34;9.10;99.90
18777;DHT22;9517;51.174;4.160;2022-10-03T03:28:12;9.20;99.90
18777;DHT22;9517;51.174;4.160;2022-10-03T03:30:51;9.10;99.90
18777;DHT22;9517;51.174;4.160;2022-10-03T03:33:25;9.10;99.90
18777;DHT22;9517;51.174;4.160;2022-10-03T03:36:01;9.20;99.90
18777;DHT22;9517;51.174;4.160;2022-10-03T03:38:38;9.20;99.90
18777;DHT22;9517;51.174;4.160;2022-10-03T03:41:23;9.10;99.90
18777;DHT22;9517;51.174;4.160;2022-10-03T03:44:08;9.00;99.90
18777;DHT22;9517;51.174;4.160;2022-10-03T03:46:49;9.00;99.90
18777;DHT22;9517;51.174;4.160;2022-10-03T03:49:30;8.90;99.90
18777;DHT22;9517;51.174;4.160;2022-10-03T03:52:20;8.80;99.90
18777;DHT22;9517;51.174;4.160;2022-10-03T03:55:15;8.80;99.90
18777;DHT22;9517;51.174;4.160;2022-10-03T03:58:16;8.80;99.90
18777;DHT22;9517;51.174;4.160;2022-10-03T04:01:01;8.80;99.90
18777;DHT22;9517;51.174;4.160;2022-10-03T04:03:45;8.80;99.90
18777;DHT22;9517;51.174;4.160;2022-10-03T04:06:32;8.80;99.90
18777;DHT22;9517;51.174;4.160;2022-10-03T04:09:40;8.90;99.90
18777;DHT22;9517;51.174;4.160;2022-10-03T04:12:18;8.90;99.90
18777;DHT22;9517;51.174;4.160;2022-10-03T04:15:02;8.90;99.90
18777;DHT22;9517;51.174;4.160;2022-10-03T04:17:48;8.90;99.90
18777;DHT22;9517;51.174;4.160;2022-10-03T04:20:57;8.90;99.90
18777;DHT22;9517;51.174;4.160;2022-10-03T04:23:46;8.90;99.90
18777;DHT22;9517;51.174;4.160;2022-10-03T04:26:23;9.00;99.90
18777;DHT22;9517;51.174;4.160;2022-10-03T04:29:32;9.10;99.90
18777;DHT22;9517;51.174;4.160;2022-10-03T04:32:11;9.10;99.90
18777;DHT22;9517;51.174;4.160;2022-10-03T04:34:51;9.20;99.90
18777;DHT22;9517;51.174;4.160;2022-10-03T04:37:30;9.20;99.90
18777;DHT22;9517;51.174;4.160;2022-10-03T04:40:17;9.20;99.90
18777;DHT22;9517;51.174;4.160;2022-10-03T04:42:57;9.20;99.90
18777;DHT22;9517;51.174;4.160;2022-10-03T04:45:40;9.20;99.90
18777;DHT22;9517;51.174;4.160;2022-10-03T04:48:15;9.10;99.90
18777;DHT22;9517;51.174;4.160;2022-10-03T04:50:54;9.00;99.90
18777;DHT22;9517;51.174;4.160;2022-10-03T04:53:33;9.10;99.90
18777;DHT22;9517;51.174;4.160;2022-10-03T04:56:20;8.90;99.90
18777;DHT22;9517;51.174;4.160;2022-10-03T04:58:55;8.90;99.90
18777;DHT22;9517;51.174;4.160;2022-10-03T05:01:36;8.80;99.90
18777;DHT22;9517;51.174;4.160;2022-10-03T05:04:12;8.70;99.90
18777;DHT22;9517;51.174;4.160;2022-10-03T05:06:45;8.70;99.90
18777;DHT22;9517;51.174;4.160;2022-10-03T05:09:25;8.60;99.90
18777;DHT22;9517;51.174;4.160;2022-10-03T05:12:04;8.60;99.90
18777;DHT22;9517;51.174;4.160;2022-10-03T05:14:47;8.70;99.90
18777;DHT22;9517;51.174;4.160;2022-10-03T05:17:21;8.70;99.90
18777;DHT22;9517;51.174;4.160;2022-10-03T05:20:02;8.70;99.90
18777;DHT22;9517;51.174;4.160;2022-10-03T05:22:45;8.80;99.90
18777;DHT22;9517;51.174;4.160;2022-10-03T05:25:25;8.70;99.90
18777;DHT22;9517;51.174;4.160;2022-10-03T05:28:00;8.70;99.90
18777;DHT22;9517;51.174;4.160;2022-10-03T05:30:38;8.70;99.90
18777;DHT22;9517;51.174;4.160;2022-10-03T05:33:18;8.70;99.90
18777;DHT22;9517;51.174;4.160;2022-10-03T05:36:01;8.70;99.90
18777;DHT22;9517;51.174;4.160;2022-10-03T05:38:58;8.70;99.90
18777;DHT22;9517;51.174;4.160;2022-10-03T05:41:29;8.70;99.90
18777;DHT22;9517;51.174;4.160;2022-10-03T05:44:02;8.60;99.90
18777;DHT22;9517;51.174;4.160;2022-10-03T05:46:40;8.60;99.90
18777;DHT22;9517;51.174;4.160;2022-10-03T05:49:26;8.60;99.90
18777;DHT22;9517;51.174;4.160;2022-10-03T05:52:10;8.60;99.90
18777;DHT22;9517;51.174;4.160;2022-10-03T05:55:02;8.60;99.90
18777;DHT22;9517;51.174;4.160;2022-10-03T05:57:57;8.60;99.90
18777;DHT22;9517;51.174;4.160;2022-10-03T06:00:42;8.70;99.90
18777;DHT22;9517;51.174;4.160;2022-10-03T06:06:33;8.70;99.90
18777;DHT22;9517;51.174;4.160;2022-10-03T06:12:06;8.90;99.90
18777;DHT22;9517;51.174;4.160;2022-10-03T06:14:49;9.00;99.90
18777;DHT22;9517;51.174;4.160;2022-10-03T06:17:47;9.10;99.90
18777;DHT22;9517;51.174;4.160;2022-10-03T06:20:44;9.10;99.90
18777;DHT22;9517;51.174;4.160;2022-10-03T06:29:45;9.30;99.90
18777;DHT22;9517;51.174;4.160;2022-10-03T06:35:48;9.50;99.90
18777;DHT22;9517;51.174;4.160;2022-10-03T06:45:14;10.00;99.90
18777;DHT22;9517;51.174;4.160;2022-10-03T06:50:55;10.20;99.90
18777;DHT22;9517;51.174;4.160;2022-10-03T06:53:42;10.20;99.90
18777;DHT22;9517;51.174;4.160;2022-10-03T06:56:48;10.40;99.90
18777;DHT22;9517;51.174;4.160;2022-10-03T06:59:49;10.50;99.90
18777;DHT22;9517;51.174;4.160;2022-10-03T07:02:34;10.70;99.90
18777;DHT22;9517;51.174;4.160;2022-10-03T07:08:35;11.00;99.90
18777;DHT22;9517;51.174;4.160;2022-10-03T07:11:32;11.00;99.90
18777;DHT22;9517;51.174;4.160;2022-10-03T07:17:33;11.20;99.90
18777;DHT22;9517;51.174;4.160;2022-10-03T07:20:25;11.30;99.90
18777;DHT22;9517;51.174;4.160;2022-10-03T07:23:25;11.50;99.90
18777;DHT22;9517;51.174;4.160;2022-10-03T07:26:23;11.60;99.90
18777;DHT22;9517;51.174;4.160;2022-10-03T07:29:17;11.80;99.90
18777;DHT22;9517;51.174;4.160;2022-10-03T07:32:06;11.90;99.90
18777;DHT22;9517;51.174;4.160;2022-10-03T07:35:07;12.00;99.90
18777;DHT22;9517;51.174;4.160;2022-10-03T07:38:11;12.20;99.90
18777;DHT22;9517;51.174;4.160;2022-10-03T07:41:22;12.30;99.90
18777;DHT22;9517;51.174;4.160;2022-10-03T07:44:36;12.50;99.90
18777;DHT22;9517;51.174;4.160;2022-10-03T07:56:18;13.00;99.90
18777;DHT22;9517;51.174;4.160;2022-10-03T07:59:02;12.90;99.90
18777;DHT22;9517;51.174;4.160;2022-10-03T08:01:55;13.00;99.90
18777;DHT22;9517;51.174;4.160;2022-10-03T08:04:53;13.00;99.90
18777;DHT22;9517;51.174;4.160;2022-10-03T08:07:52;13.10;99.90
18777;DHT22;9517;51.174;4.160;2022-10-03T08:13:48;13.50;99.90
18777;DHT22;9517;51.174;4.160;2022-10-03T08:16:31;13.60;99.90
18777;DHT22;9517;51.174;4.160;2022-10-03T08:22:07;14.00;99.90
18777;DHT22;9517;51.174;4.160;2022-10-03T08:24:57;14.20;99.90
18777;DHT22;9517;51.174;4.160;2022-10-03T08:27:37;14.40;99.90
18777;DHT22;9517;51.174;4.160;2022-10-03T08:30:23;14.50;99.90
18777;DHT22;9517;51.174;4.160;2022-10-03T08:39:10;14.80;99.90
18777;DHT22;9517;51.174;4.160;2022-10-03T08:42:06;14.70;99.90
18777;DHT22;9517;51.174;4.160;2022-10-03T08:45:14;14.90;99.90
18777;DHT22;9517;51.174;4.160;2022-10-03T08:48:19;15.10;99.90
18777;DHT22;9517;51.174;4.160;2022-10-03T09:07:00;16.10;99.90
18777;DHT22;9517;51.174;4.160;2022-10-03T09:13:15;16.10;99.90
18777;DHT22;9517;51.174;4.160;2022-10-03T09:16:24;16.40;99.90
18777;DHT22;9517;51.174;4.160;2022-10-03T09:22:13;17.00;99.90
18777;DHT22;9517;51.174;4.160;2022-10-03T09:25:09;17.40;99.90
18777;DHT22;9517;51.174;4.160;2022-10-03T09:28:03;17.50;99.90
18777;DHT22;9517;51.174;4.160;2022-10-03T09:30:49;17.40;99.90
18777;DHT22;9517;51.174;4.160;2022-10-03T09:40:08;18.10;99.90
18777;DHT22;9517;51.174;4.160;2022-10-03T09:49:38;18.50;99.90
18777;DHT22;9517;51.174;4.160;2022-10-03T09:52:30;18.60;99.90
18777;DHT22;9517;51.174;4.160;2022-10-03T09:55:18;18.80;99.90
18777;DHT22;9517;51.174;4.160;2022-10-03T09:58:05;19.10;99.90
18777;DHT22;9517;51.174;4.160;2022-10-03T10:00:51;19.00;99.90
18777;DHT22;9517;51.174;4.160;2022-10-03T10:06:51;19.20;99.90
18777;DHT22;9517;51.174;4.160;2022-10-03T10:16:41;19.50;99.90
18777;DHT22;9517;51.174;4.160;2022-10-03T10:19:44;20.00;99.90
18777;DHT22;9517;51.174;4.160;2022-10-03T10:25:42;20.20;99.90
18777;DHT22;9517;51.174;4.160;2022-10-03T10:37:56;21.30;99.90
18777;DHT22;9517;51.174;4.160;2022-10-03T10:40:57;21.20;99.90
18777;DHT22;9517;51.174;4.160;2022-10-03T10:43:59;21.30;99.90
18777;DHT22;9517;51.174;4.160;2022-10-03T10:47:10;21.30;99.90
18777;DHT22;9517;51.174;4.160;2022-10-03T10:55:58;21.20;99.90
18777;DHT22;9517;51.174;4.160;2022-10-03T11:11:26;22.60;99.90
18777;DHT22;9517;51.174;4.160;2022-10-03T11:14:30;22.30;99.90
18777;DHT22;9517;51.174;4.160;2022-10-03T11:17:25;22.30;99.90
18777;DHT22;9517;51.174;4.160;2022-10-03T11:29:37;26.10;99.90
18777;DHT22;9517;51.174;4.160;2022-10-03T11:33:00;25.30;99.90
18777;DHT22;9517;51.174;4.160;2022-10-03T11:36:10;27.40;99.90
18777;DHT22;9517;51.174;4.160;2022-10-03T11:38:53;28.80;99.90
18777;DHT22;9517;51.174;4.160;2022-10-03T11:41:35;28.00;99.90
18777;DHT22;9517;51.174;4.160;2022-10-03T11:44:16;26.40;99.90
18777;DHT22;9517;51.174;4.160;2022-10-03T11:46:57;24.80;99.90
18777;DHT22;9517;51.174;4.160;2022-10-03T11:49:50;23.80;99.90
18777;DHT22;9517;51.174;4.160;2022-10-03T11:52:27;24.60;99.90
18777;DHT22;9517;51.174;4.160;2022-10-03T11:55:08;26.10;99.90
18777;DHT22;9517;51.174;4.160;2022-10-03T11:57:46;27.00;99.90
18777;DHT22;9517;51.174;4.160;2022-10-03T12:00:17;28.20;99.90
18777;DHT22;9517;51.174;4.160;2022-10-03T12:03:03;29.80;99.60
18777;DHT22;9517;51.174;4.160;2022-10-03T12:05:45;28.60;96.80
18777;DHT22;9517;51.174;4.160;2022-10-03T12:08:22;28.00;99.90
18777;DHT22;9517;51.174;4.160;2022-10-03T12:11:15;27.80;97.80
18777;DHT22;9517;51.174;4.160;2022-10-03T12:13:52;27.40;98.70
18777;DHT22;9517;51.174;4.160;2022-10-03T12:16:24;28.50;99.10
18777;DHT22;9517;51.174;4.160;2022-10-03T12:19:00;29.60;97.90
18777;DHT22;9517;51.174;4.160;2022-10-03T12:21:39;29.70;94.60
18777;DHT22;9517;51.174;4.160;2022-10-03T12:24:22;28.70;94.90
18777;DHT22;9517;51.174;4.160;2022-10-03T12:26:57;28.40;95.10
18777;DHT22;9517;51.174;4.160;2022-10-03T12:29:29;28.50;97.20
18777;DHT22;9517;51.174;4.160;2022-10-03T12:32:16;30.00;96.60
18777;DHT22;9517;51.174;4.160;2022-10-03T12:34:49;30.20;93.50
18777;DHT22;9517;51.174;4.160;2022-10-03T12:37:43;29.60;94.80
18777;DHT22;9517;51.174;4.160;2022-10-03T12:40:18;30.10;93.90
18777;DHT22;9517;51.174;4.160;2022-10-03T12:43:01;29.60;93.20
18777;DHT22;9517;51.174;4.160;2022-10-03T12:45:33;30.00;92.20
18777;DHT22;9517;51.174;4.160;2022-10-03T12:48:21;30.20;94.60
18777;DHT22;9517;51.174;4.160;2022-10-03T12:50:56;29.90;93.30
18777;DHT22;9517;51.174;4.160;2022-10-03T12:53:37;30.40;92.70
18777;DHT22;9517;51.174;4.160;2022-10-03T12:56:13;30.30;92.50
18777;DHT22;9517;51.174;4.160;2022-10-03T12:58:52;28.60;91.70
18777;DHT22;9517;51.174;4.160;2022-10-03T13:01:27;27.10;93.60
18777;DHT22;9517;51.174;4.160;2022-10-03T13:04:01;25.80;95.20
18777;DHT22;9517;51.174;4.160;2022-10-03T13:06:54;24.30;97.40
18777;DHT22;9517;51.174;4.160;2022-10-03T13:10:08;23.70;99.90
18777;DHT22;9517;51.174;4.160;2022-10-03T13:12:43;23.60;99.90
18777;DHT22;9517;51.174;4.160;2022-10-03T13:15:42;23.60;99.90
18777;DHT22;9517;51.174;4.160;2022-10-03T13:18:23;22.80;99.90
18777;DHT22;9517;51.174;4.160;2022-10-03T13:21:00;23.30;99.90
18777;DHT22;9517;51.174;4.160;2022-10-03T13:23:39;23.40;99.90
18777;DHT22;9517;51.174;4.160;2022-10-03T13:26:11;23.20;99.90
18777;DHT22;9517;51.174;4.160;2022-10-03T13:31:47;23.30;99.90
18777;DHT22;9517;51.174;4.160;2022-10-03T13:34:22;22.80;99.90
18777;DHT22;9517;51.174;4.160;2022-10-03T13:36:54;22.40;99.90
18777;DHT22;9517;51.174;4.160;2022-10-03T13:39:24;22.40;99.90
18777;DHT22;9517;51.174;4.160;2022-10-03T13:42:07;22.60;99.90
18777;DHT22;9517;51.174;4.160;2022-10-03T13:44:37;22.90;99.90
18777;DHT22;9517;51.174;4.160;2022-10-03T13:47:19;22.30;99.90
18777;DHT22;9517;51.174;4.160;2022-10-03T13:49:52;22.00;99.90
18777;DHT22;9517;51.174;4.160;2022-10-03T13:52:27;21.80;99.90
18777;DHT22;9517;51.174;4.160;2022-10-03T13:55:17;21.40;99.90
18777;DHT22;9517;51.174;4.160;2022-10-03T13:58:19;21.10;99.90
18777;DHT22;9517;51.174;4.160;2022-10-03T14:01:06;21.60;99.90
18777;DHT22;9517;51.174;4.160;2022-10-03T14:03:50;21.80;99.90
18777;DHT22;9517;51.174;4.160;2022-10-03T14:06:24;21.80;99.90
18777;DHT22;9517;51.174;4.160;2022-10-03T14:09:21;21.90;99.90
18777;DHT22;9517;51.174;4.160;2022-10-03T14:11:59;22.10;99.90
18777;DHT22;9517;51.174;4.160;2022-10-03T14:14:44;22.10;99.90
18777;DHT22;9517;51.174;4.160;2022-10-03T14:17:19;22.10;99.90
18777;DHT22;9517;51.174;4.160;2022-10-03T14:20:01;22.30;99.90
18777;DHT22;9517;51.174;4.160;2022-10-03T14:22:43;21.90;99.90
18777;DHT22;9517;51.174;4.160;2022-10-03T14:25:20;22.00;99.90
18777;DHT22;9517;51.174;4.160;2022-10-03T14:27:52;22.20;99.90
18777;DHT22;9517;51.174;4.160;2022-10-03T14:30:22;21.90;99.90
18777;DHT22;9517;51.174;4.160;2022-10-03T14:33:01;21.80;99.90
18777;DHT22;9517;51.174;4.160;2022-10-03T14:35:36;22.00;99.90
18777;DHT22;9517;51.174;4.160;2022-10-03T14:38:18;21.30;99.90
18777;DHT22;9517;51.174;4.160;2022-10-03T14:40:50;21.00;99.90
18777;DHT22;9517;51.174;4.160;2022-10-03T14:43:37;21.00;99.90
18777;DHT22;9517;51.174;4.160;2022-10-03T14:46:11;21.20;99.90
18777;DHT22;9517;51.174;4.160;2022-10-03T14:48:41;21.40;99.90
18777;DHT22;9517;51.174;4.160;2022-10-03T14:51:15;21.80;99.90
18777;DHT22;9517;51.174;4.160;2022-10-03T14:53:52;22.20;99.90
18777;DHT22;9517;51.174;4.160;2022-10-03T14:56:20;22.30;99.90
18777;DHT22;9517;51.174;4.160;2022-10-03T14:58:51;22.60;99.90
18777;DHT22;9517;51.174;4.160;2022-10-03T15:01:22;22.90;99.90
18777;DHT22;9517;51.174;4.160;2022-10-03T15:03:59;23.60;99.90
18777;DHT22;9517;51.174;4.160;2022-10-03T15:09:22;23.40;99.90
18777;DHT22;9517;51.174;4.160;2022-10-03T15:11:53;23.40;99.90
18777;DHT22;9517;51.174;4.160;2022-10-03T15:14:26;23.20;99.90
18777;DHT22;9517;51.174;4.160;2022-10-03T15:16:59;23.30;99.90
18777;DHT22;9517;51.174;4.160;2022-10-03T15:19:32;23.40;99.90
18777;DHT22;9517;51.174;4.160;2022-10-03T15:22:05;24.20;99.90
18777;DHT22;9517;51.174;4.160;2022-10-03T15:24:35;24.90;99.90
18777;DHT22;9517;51.174;4.160;2022-10-03T15:27:08;24.70;99.90
18777;DHT22;9517;51.174;4.160;2022-10-03T15:29:38;25.20;99.90
18777;DHT22;9517;51.174;4.160;2022-10-03T15:32:19;25.40;99.90
18777;DHT22;9517;51.174;4.160;2022-10-03T15:34:53;25.20;99.90
18777;DHT22;9517;51.174;4.160;2022-10-03T15:37:25;25.10;99.90
18777;DHT22;9517;51.174;4.160;2022-10-03T15:39:59;24.70;99.90
18777;DHT22;9517;51.174;4.160;2022-10-03T15:42:29;24.20;99.90
18777;DHT22;9517;51.174;4.160;2022-10-03T15:44:59;23.80;99.90
18777;DHT22;9517;51.174;4.160;2022-10-03T15:47:31;23.80;99.90
18777;DHT22;9517;51.174;4.160;2022-10-03T15:50:02;23.40;99.90
18777;DHT22;9517;51.174;4.160;2022-10-03T15:52:35;23.40;99.90
18777;DHT22;9517;51.174;4.160;2022-10-03T15:55:12;23.10;99.90
18777;DHT22;9517;51.174;4.160;2022-10-03T15:57:44;23.40;99.90
18777;DHT22;9517;51.174;4.160;2022-10-03T16:00:20;23.30;99.90
18777;DHT22;9517;51.174;4.160;2022-10-03T16:02:55;22.50;99.90
18777;DHT22;9517;51.174;4.160;2022-10-03T16:05:26;22.20;99.90
18777;DHT22;9517;51.174;4.160;2022-10-03T16:07:58;21.70;99.90
18777;DHT22;9517;51.174;4.160;2022-10-03T16:10:30;21.60;99.90
18777;DHT22;9517;51.174;4.160;2022-10-03T16:13:12;21.60;99.90
18777;DHT22;9517;51.174;4.160;2022-10-03T16:15:56;21.20;99.90
18777;DHT22;9517;51.174;4.160;2022-10-03T16:18:48;21.00;99.90
18777;DHT22;9517;51.174;4.160;2022-10-03T16:21:36;20.70;99.90
18777;DHT22;9517;51.174;4.160;2022-10-03T16:24:13;20.20;99.90
18777;DHT22;9517;51.174;4.160;2022-10-03T16:26:49;19.90;99.90
18777;DHT22;9517;51.174;4.160;2022-10-03T16:29:26;19.90;99.90
18777;DHT22;9517;51.174;4.160;2022-10-03T16:32:00;19.60;99.90
18777;DHT22;9517;51.174;4.160;2022-10-03T16:34:30;19.50;99.90
18777;DHT22;9517;51.174;4.160;2022-10-03T16:36:59;19.20;99.90
18777;DHT22;9517;51.174;4.160;2022-10-03T16:39:28;19.10;99.90
18777;DHT22;9517;51.174;4.160;2022-10-03T16:41:58;19.00;99.90
18777;DHT22;9517;51.174;4.160;2022-10-03T16:44:29;18.90;99.90
18777;DHT22;9517;51.174;4.160;2022-10-03T16:47:01;18.70;99.90
18777;DHT22;9517;51.174;4.160;2022-10-03T16:49:40;18.60;99.90
18777;DHT22;9517;51.174;4.160;2022-10-03T16:52:30;18.50;99.90
18777;DHT22;9517;51.174;4.160;2022-10-03T16:55:02;18.40;99.90
18777;DHT22;9517;51.174;4.160;2022-10-03T16:57:38;18.30;99.90
18777;DHT22;9517;51.174;4.160;2022-10-03T17:00:15;18.10;99.90
18777;DHT22;9517;51.174;4.160;2022-10-03T17:02:44;18.00;99.90
18777;DHT22;9517;51.174;4.160;2022-10-03T17:05:13;17.70;99.90
18777;DHT22;9517;51.174;4.160;2022-10-03T17:07:43;17.60;99.90
18777;DHT22;9517;51.174;4.160;2022-10-03T17:10:26;17.40;99.90
18777;DHT22;9517;51.174;4.160;2022-10-03T17:12:56;17.40;99.90
18777;DHT22;9517;51.174;4.160;2022-10-03T17:15:27;17.20;99.90
18777;DHT22;9517;51.174;4.160;2022-10-03T17:17:57;17.00;99.90
18777;DHT22;9517;51.174;4.160;2022-10-03T17:20:38;16.90;99.90
18777;DHT22;9517;51.174;4.160;2022-10-03T17:23:11;16.80;99.90
18777;DHT22;9517;51.174;4.160;2022-10-03T17:25:49;16.60;99.90
18777;DHT22;9517;51.174;4.160;2022-10-03T17:28:29;16.40;99.90
18777;DHT22;9517;51.174;4.160;2022-10-03T17:31:00;16.30;99.90
18777;DHT22;9517;51.174;4.160;2022-10-03T17:33:36;16.20;99.90
18777;DHT22;9517;51.174;4.160;2022-10-03T17:36:52;16.00;99.90
18777;DHT22;9517;51.174;4.160;2022-10-03T17:39:42;15.90;99.90
18777;DHT22;9517;51.174;4.160;2022-10-03T17:42:27;15.80;99.90
18777;DHT22;9517;51.174;4.160;2022-10-03T17:45:01;15.70;99.90
18777;DHT22;9517;51.174;4.160;2022-10-03T17:47:35;15.70;99.90
18777;DHT22;9517;51.174;4.160;2022-10-03T17:50:13;15.70;99.90
18777;DHT22;9517;51.174;4.160;2022-10-03T17:52:44;15.80;99.90
18777;DHT22;9517;51.174;4.160;2022-10-03T17:55:16;15.80;99.90
18777;DHT22;9517;51.174;4.160;2022-10-03T17:57:47;15.90;99.90
18777;DHT22;9517;51.174;4.160;2022-10-03T18:00:18;15.80;99.90
18777;DHT22;9517;51.174;4.160;2022-10-03T18:02:53;15.80;99.90
18777;DHT22;9517;51.174;4.160;2022-10-03T18:05:24;15.90;99.90
18777;DHT22;9517;51.174;4.160;2022-10-03T18:07:55;15.90;99.90
18777;DHT22;9517;51.174;4.160;2022-10-03T18:10:33;16.00;99.90
18777;DHT22;9517;51.174;4.160;2022-10-03T18:13:01;15.90;99.90
18777;DHT22;9517;51.174;4.160;2022-10-03T18:15:59;15.90;99.90
18777;DHT22;9517;51.174;4.160;2022-10-03T18:18:52;15.90;99.90
18777;DHT22;9517;51.174;4.160;2022-10-03T18:21:31;15.80;99.90
18777;DHT22;9517;51.174;4.160;2022-10-03T18:24:21;15.80;99.90
18777;DHT22;9517;51.174;4.160;2022-10-03T18:26:57;15.70;99.90
18777;DHT22;9517;51.174;4.160;2022-10-03T18:29:29;15.60;99.90
18777;DHT22;9517;51.174;4.160;2022-10-03T18:32:11;15.40;99.90
18777;DHT22;9517;51.174;4.160;2022-10-03T18:34:43;15.40;99.90
18777;DHT22;9517;51.174;4.160;2022-10-03T18:37:52;15.30;99.90
18777;DHT22;9517;51.174;4.160;2022-10-03T18:40:31;15.20;99.90
18777;DHT22;9517;51.174;4.160;2022-10-03T18:42:59;15.00;99.90
18777;DHT22;9517;51.174;4.160;2022-10-03T18:45:32;15.00;99.90
18777;DHT22;9517;51.174;4.160;2022-10-03T18:48:08;15.00;99.90
18777;DHT22;9517;51.174;4.160;2022-10-03T18:50:48;14.80;99.90
18777;DHT22;9517;51.174;4.160;2022-10-03T18:53:19;14.80;99.90
18777;DHT22;9517;51.174;4.160;2022-10-03T18:55:57;14.60;99.90
18777;DHT22;9517;51.174;4.160;2022-10-03T18:58:28;14.60;99.90
18777;DHT22;9517;51.174;4.160;2022-10-03T19:01:01;14.60;99.90
18777;DHT22;9517;51.174;4.160;2022-10-03T19:03:34;14.50;99.90
18777;DHT22;9517;51.174;4.160;2022-10-03T19:06:04;14.50;99.90
18777;DHT22;9517;51.174;4.160;2022-10-03T19:08:40;14.40;99.90
18777;DHT22;9517;51.174;4.160;2022-10-03T19:11:16;14.40;99.90
18777;DHT22;9517;51.174;4.160;2022-10-03T19:13:55;14.30;99.90
18777;DHT22;9517;51.174;4.160;2022-10-03T19:19:27;14.30;99.90
18777;DHT22;9517;51.174;4.160;2022-10-03T19:22:01;14.20;99.90
18777;DHT22;9517;51.174;4.160;2022-10-03T19:24:31;14.20;99.90
18777;DHT22;9517;51.174;4.160;2022-10-03T19:27:11;14.20;99.90
18777;DHT22;9517;51.174;4.160;2022-10-03T19:29:41;14.20;99.90
18777;DHT22;9517;51.174;4.160;2022-10-03T19:32:18;14.20;99.90
18777;DHT22;9517;51.174;4.160;2022-10-03T19:34:55;14.20;99.90
18777;DHT22;9517;51.174;4.160;2022-10-03T19:37:38;14.30;99.90
18777;DHT22;9517;51.174;4.160;2022-10-03T19:43:40;14.10;99.90
18777;DHT22;9517;51.174;4.160;2022-10-03T19:46:31;14.20;99.90
18777;DHT22;9517;51.174;4.160;2022-10-03T19:49:33;14.10;99.90
18777;DHT22;9517;51.174;4.160;2022-10-03T19:52:17;14.00;99.90
18777;DHT22;9517;51.174;4.160;2022-10-03T19:54:50;13.90;99.90
18777;DHT22;9517;51.174;4.160;2022-10-03T19:57:20;13.80;99.90
18777;DHT22;9517;51.174;4.160;2022-10-03T19:59:52;13.80;99.90
18777;DHT22;9517;51.174;4.160;2022-10-03T20:02:23;13.70;99.90
18777;DHT22;9517;51.174;4.160;2022-10-03T20:04:53;13.60;99.90
18777;DHT22;9517;51.174;4.160;2022-10-03T20:07:40;13.60;99.90
18777;DHT22;9517;51.174;4.160;2022-10-03T20:10:22;13.60;99.90
18777;DHT22;9517;51.174;4.160;2022-10-03T20:12:52;13.60;99.90
18777;DHT22;9517;51.174;4.160;2022-10-03T20:15:23;13.60;99.90
18777;DHT22;9517;51.174;4.160;2022-10-03T20:17:57;13.60;99.90
18777;DHT22;9517;51.174;4.160;2022-10-03T20:20:29;13.60;99.90